Time;durP1;ratioP1;P1;durP2;ratioP2;P2;SDS_P1;SDS_P2;PMS_P1;PMS_P2;Temp;Humidity;BMP_temperature;BMP_pressure;BME280_temperature;BME280_humidity;BME280_pressure;Samples;Min_cycle;Max_cycle;Signal;HPM_P1;HPM_P2
2023/11/06 00:00:11;;;;;;;3.13;1.00;;;;;;;14.83;83.05;92690.97;513434;28;840;-67
2023/11/06 00:00:27;;;;;;;2.00;1.00;;;;;;;14.83;83.16;92695.78;513131;28;924;-67
2023/11/06 00:00:43;;;;;;;1.23;0.90;;;;;;;14.83;82.96;92685.41;513389;28;757;-67
2023/11/06 00:00:58;;;;;;;0.95;0.90;;;;;;;14.83;82.97;92690.22;513430;28;967;-67
2023/11/06 00:01:13;;;;;;;1.40;0.90;;;;;;;14.82;82.94;92686.72;513551;28;770;-67
2023/11/06 00:01:29;;;;;;;2.08;1.08;;;;;;;14.83;83.09;92687.44;513282;28;935;-67
2023/11/06 00:01:44;;;;;;;1.80;1.20;;;;;;;14.83;83.04;92687.44;513424;28;1047;-67
2023/11/06 00:02:00;;;;;;;2.67;1.20;;;;;;;14.83;83.04;92690.22;513287;28;880;-67
2023/11/06 00:02:15;;;;;;;2.35;1.10;;;;;;;14.82;83.18;92688.75;513356;28;860;-67
2023/11/06 00:02:30;;;;;;;1.90;0.90;;;;;;;14.82;83.22;92689.50;513271;28;838;-67
2023/11/06 00:02:46;;;;;;;1.90;0.93;;;;;;;14.82;83.08;92695.06;513396;28;984;-67
2023/11/06 00:03:01;;;;;;;1.40;1.10;;;;;;;14.83;83.18;92693.00;513540;28;766;-67
2023/11/06 00:03:17;;;;;;;1.50;1.07;;;;;;;14.83;83.18;92693.75;513460;28;781;-67
2023/11/06 00:03:32;;;;;;;1.30;1.00;;;;;;;14.82;83.15;92686.72;513287;28;825;-67
2023/11/06 00:03:48;;;;;;;1.53;1.10;;;;;;;14.83;83.19;92699.31;513434;28;858;-67
2023/11/06 00:04:03;;;;;;;1.90;1.10;;;;;;;14.83;83.24;92696.53;513466;28;935;-67
2023/11/06 00:04:19;;;;;;;2.07;1.10;;;;;;;14.84;83.26;92697.97;513336;28;812;-67
2023/11/06 00:04:35;;;;;;;1.33;0.98;;;;;;;14.84;83.14;92695.19;513186;28;770;-67
2023/11/06 00:04:50;;;;;;;1.00;0.90;;;;;;;14.85;83.18;92695.91;513394;28;818;-67
2023/11/06 00:05:08;;;;;;;1.03;0.93;;;;;;;14.83;83.18;92690.22;513513;28;960;-67
2023/11/06 00:05:23;;;;;;;1.25;1.10;;;;;;;14.84;83.31;92694.44;513310;28;911;-67
2023/11/06 00:05:39;;;;;;;1.52;1.23;;;;;;;14.84;83.36;92694.44;513198;28;1281;-67
2023/11/06 00:05:54;;;;;;;1.63;1.13;;;;;;;14.84;83.37;92697.97;513338;28;996;-67
2023/11/06 00:06:09;;;;;;;1.38;1.08;;;;;;;14.83;83.35;92693.75;513438;28;830;-67
2023/11/06 00:06:25;;;;;;;1.60;1.13;;;;;;;14.85;83.54;92695.91;513232;28;900;-67
2023/11/06 00:06:40;;;;;;;2.60;1.27;;;;;;;14.86;83.46;92697.34;513162;28;889;-67
2023/11/06 00:06:55;;;;;;;2.50;1.17;;;;;;;14.88;83.59;92708.59;513367;28;834;-67
2023/11/06 00:07:11;;;;;;;1.30;0.93;;;;;;;14.87;83.68;92702.34;513490;28;814;-67
2023/11/06 00:07:26;;;;;;;2.00;1.10;;;;;;;14.89;83.44;92702.47;513337;28;843;-67
2023/11/06 00:07:43;;;;;;;2.90;1.27;;;;;;;14.89;83.51;92705.25;512812;28;1163;-67
2023/11/06 00:07:58;;;;;;;2.60;1.60;;;;;;;14.90;83.49;92706.69;513292;28;894;-67
2023/11/06 00:08:14;;;;;;;2.45;1.60;;;;;;;14.83;83.44;92690.97;513489;28;1123;-67
2023/11/06 00:08:31;;;;;;;3.28;1.90;;;;;;;14.91;83.35;92708.16;513309;28;1070;-67
2023/11/06 00:08:46;;;;;;;4.15;2.40;;;;;;;14.86;83.47;92706.44;513311;28;932;-67
2023/11/06 00:09:04;;;;;;;3.05;2.22;;;;;;;14.86;83.41;92706.44;513357;28;794;-67
2023/11/06 00:09:21;;;;;;;2.22;1.65;;;;;;;14.84;83.52;92697.22;513496;28;896;-67
2023/11/06 00:09:37;;;;;;;2.97;1.52;;;;;;;14.84;83.38;92708.34;513757;28;860;-67
2023/11/06 00:09:52;;;;;;;2.67;1.70;;;;;;;14.84;83.49;92697.97;513629;28;836;-67
2023/11/06 00:10:11;;;;;;;2.92;1.73;;;;;;;14.84;83.35;92705.56;513690;28;919;-67
2023/11/06 00:10:28;;;;;;;2.67;1.58;;;;;;;14.84;83.25;92697.97;513652;28;844;-67
2023/11/06 00:10:43;;;;;;;2.10;1.40;;;;;;;14.85;83.35;92698.69;513652;28;896;-67
2023/11/06 00:10:58;;;;;;;1.77;1.33;;;;;;;14.85;83.27;92701.47;513735;28;761;-67
2023/11/06 00:11:14;;;;;;;1.40;1.05;;;;;;;14.85;83.27;92696.66;513746;28;773;-67
2023/11/06 00:11:30;;;;;;;1.43;0.90;;;;;;;14.69;82.97;92676.13;513638;28;957;-67
2023/11/06 00:11:45;;;;;;;1.90;1.10;;;;;;;14.86;83.04;92695.31;514008;28;1038;-67
2023/11/06 00:12:00;;;;;;;3.40;1.40;;;;;;;14.86;83.00;92694.56;513516;28;888;-67
2023/11/06 00:12:16;;;;;;;3.55;1.40;;;;;;;14.86;82.97;92700.13;511630;29;837;-67
2023/11/06 00:12:32;;;;;;;2.93;1.23;;;;;;;14.87;82.95;92699.56;511488;29;769;-67
2023/11/06 00:12:47;;;;;;;2.85;1.15;;;;;;;14.86;83.01;92700.88;511763;29;820;-67
2023/11/06 00:13:03;;;;;;;1.10;1.00;;;;;;;14.88;82.98;92705.81;511496;29;904;-67
2023/11/06 00:13:19;;;;;;;2.10;0.95;;;;;;;14.88;82.81;92700.28;511578;29;1007;-68
2023/11/06 00:13:35;;;;;;;2.00;0.90;;;;;;;14.86;83.00;92692.53;511468;29;797;-67
2023/11/06 00:13:51;;;;;;;1.08;1.00;;;;;;;14.86;82.88;92692.53;511837;29;892;-67
2023/11/06 00:14:06;;;;;;;1.30;1.10;;;;;;;14.66;82.80;92660.63;512068;28;758;-67
2023/11/06 00:14:22;;;;;;;2.20;1.08;;;;;;;14.86;82.77;92691.81;513678;28;998;-67
2023/11/06 00:14:37;;;;;;;1.77;0.90;;;;;;;14.87;82.63;92696.78;513748;28;788;-67
2023/11/06 00:14:53;;;;;;;1.90;1.03;;;;;;;14.70;82.92;92677.59;513768;28;742;-67
2023/11/06 00:15:09;;;;;;;2.08;1.13;;;;;;;14.87;82.78;92699.56;513629;28;1586;-67
2023/11/06 00:15:25;;;;;;;1.45;1.13;;;;;;;14.86;82.83;92698.09;513703;28;1018;-67
2023/11/06 00:15:40;;;;;;;1.38;1.02;;;;;;;14.86;82.77;92703.66;513732;28;833;-67
2023/11/06 00:15:56;;;;;;;1.00;0.90;;;;;;;14.86;82.74;92700.13;513966;28;762;-67
2023/11/06 00:16:11;;;;;;;1.13;0.80;;;;;;;14.84;82.82;92703.53;513583;28;890;-67
2023/11/06 00:16:27;;;;;;;2.80;0.90;;;;;;;14.84;82.91;92700.75;513674;28;1242;-67
2023/11/06 00:16:43;;;;;;;3.58;1.08;;;;;;;14.84;82.70;92705.56;513728;28;928;-67
2023/11/06 00:16:58;;;;;;;2.17;1.13;;;;;;;14.83;82.78;92701.34;512525;28;1926;-67
2023/11/06 00:17:14;;;;;;;2.63;1.17;;;;;;;14.83;82.91;92701.34;511776;29;874;-67
2023/11/06 00:17:29;;;;;;;4.33;1.50;;;;;;;14.82;83.04;92703.38;511789;29;850;-67
2023/11/06 00:17:45;;;;;;;4.50;1.75;;;;;;;14.82;82.93;92706.16;511700;29;1804;-67
2023/11/06 00:18:00;;;;;;;2.97;1.47;;;;;;;14.69;82.97;92689.28;511676;29;1134;-67
2023/11/06 00:18:16;;;;;;;1.83;1.23;;;;;;;14.82;83.02;92714.50;511792;29;890;-67
2023/11/06 00:18:31;;;;;;;1.75;1.10;;;;;;;14.82;83.05;92708.22;511662;29;923;-67
2023/11/06 00:18:47;;;;;;;2.33;1.10;;;;;;;14.79;83.04;92701.78;511874;29;761;-67
2023/11/06 00:19:03;;;;;;;1.92;1.05;;;;;;;14.83;83.19;92704.84;511563;29;780;-67
2023/11/06 00:19:19;;;;;;;1.13;1.03;;;;;;;14.83;83.09;92704.84;511782;29;801;-67
2023/11/06 00:19:34;;;;;;;2.15;1.05;;;;;;;14.84;83.28;92708.34;513180;28;865;-67
2023/11/06 00:19:50;;;;;;;2.13;1.08;;;;;;;14.83;83.08;92706.91;513879;28;853;-67
2023/11/06 00:20:10;;;;;;;1.40;1.20;;;;;;;14.83;83.06;92704.84;513721;28;848;-67
2023/11/06 00:20:26;;;;;;;2.42;1.90;;;;;;;14.84;83.07;92700.75;513549;28;903;-67
2023/11/06 00:20:42;;;;;;;2.40;1.83;;;;;;;14.84;83.13;92703.53;513656;28;781;-67
2023/11/06 00:20:58;;;;;;;2.05;1.40;;;;;;;14.84;83.22;92705.56;513721;28;856;-67
2023/11/06 00:21:14;;;;;;;3.38;1.40;;;;;;;14.85;83.20;92704.25;513729;28;873;-67
2023/11/06 00:21:31;;;;;;;3.60;1.30;;;;;;;14.83;83.23;92701.34;513700;28;865;-67
2023/11/06 00:21:48;;;;;;;1.92;1.20;;;;;;;14.82;83.02;92706.16;513704;28;956;-67
2023/11/06 00:22:05;;;;;;;1.17;1.00;;;;;;;14.82;83.01;92705.44;513698;28;818;-67
2023/11/06 00:22:21;;;;;;;1.35;1.02;;;;;;;14.84;83.04;92700.00;513760;28;841;-67
2023/11/06 00:22:37;;;;;;;2.13;1.30;;;;;;;14.79;82.95;92701.09;513919;28;769;-67
2023/11/06 00:22:53;;;;;;;2.10;1.15;;;;;;;14.76;83.03;92708.56;513666;28;844;-67
2023/11/06 00:23:09;;;;;;;1.50;0.90;;;;;;;14.77;83.19;92698.88;513665;28;829;-67
2023/11/06 00:23:24;;;;;;;1.40;1.17;;;;;;;14.77;83.16;92701.66;513748;28;843;-67
2023/11/06 00:23:40;;;;;;;1.50;1.20;;;;;;;14.77;83.02;92698.88;513972;28;773;-67
2023/11/06 00:23:55;;;;;;;1.13;1.02;;;;;;;14.78;83.11;92703.13;513685;28;910;-67
2023/11/06 00:24:12;;;;;;;1.00;0.90;;;;;;;14.80;82.98;92702.53;513635;28;793;-67
2023/11/06 00:24:27;;;;;;;1.85;0.98;;;;;;;14.78;82.87;92708.69;513696;28;816;-67
2023/11/06 00:24:43;;;;;;;2.60;1.20;;;;;;;14.78;82.80;92705.16;513745;28;844;-67
2023/11/06 00:24:58;;;;;;;2.08;1.17;;;;;;;14.79;82.93;92701.09;513744;28;833;-67
2023/11/06 00:25:15;;;;;;;1.73;1.00;;;;;;;14.78;82.85;92700.34;513740;28;761;-67
2023/11/06 00:25:30;;;;;;;1.17;0.90;;;;;;;14.79;82.75;92707.34;513665;28;1731;-67
2023/11/06 00:25:46;;;;;;;1.10;1.00;;;;;;;14.78;82.86;92700.34;513965;28;955;-67
2023/11/06 00:26:03;;;;;;;1.25;1.10;;;;;;;14.76;82.81;92708.56;513531;28;853;-67
2023/11/06 00:26:18;;;;;;;1.40;1.08;;;;;;;14.74;83.05;92707.69;513695;28;833;-67
2023/11/06 00:26:33;;;;;;;1.43;1.30;;;;;;;14.73;82.95;92709.72;513508;28;2670;-67
2023/11/06 00:26:49;;;;;;;1.83;1.60;;;;;;;14.70;83.07;92710.94;513839;28;856;-67
2023/11/06 00:27:05;;;;;;;2.10;1.70;;;;;;;14.65;83.23;92709.19;513725;28;1025;-67
2023/11/06 00:27:20;;;;;;;1.92;1.70;;;;;;;14.63;83.26;92709.06;513511;28;1666;-67
2023/11/06 00:27:36;;;;;;;2.23;1.90;;;;;;;14.62;83.46;92709.66;513710;28;915;-67
2023/11/06 00:27:51;;;;;;;2.27;1.87;;;;;;;14.61;83.40;92708.94;513878;28;920;-67
2023/11/06 00:28:06;;;;;;;2.40;2.15;;;;;;;14.64;83.36;92715.34;513771;28;912;-67
2023/11/06 00:28:23;;;;;;;4.00;2.40;;;;;;;14.64;83.31;92704.94;513459;28;841;-67
2023/11/06 00:28:38;;;;;;;5.25;2.40;;;;;;;14.64;83.35;92707.72;511585;29;905;-67
2023/11/06 00:28:53;;;;;;;4.53;2.58;;;;;;;14.66;83.34;92709.94;511888;29;813;-67
2023/11/06 00:29:09;;;;;;;3.57;2.20;;;;;;;14.66;83.29;92710.63;511654;29;849;-67
2023/11/06 00:29:24;;;;;;;2.73;2.10;;;;;;;14.67;83.18;92711.38;511815;28;820;-67
2023/11/06 00:29:41;;;;;;;2.90;2.28;;;;;;;14.69;83.06;92706.69;513806;28;773;-67
2023/11/06 00:29:57;;;;;;;3.60;2.83;;;;;;;14.69;83.01;92698.34;513794;28;1046;-67
2023/11/06 00:30:12;;;;;;;4.07;3.30;;;;;;;14.67;82.93;92706.53;513647;28;801;-67
2023/11/06 00:30:28;;;;;;;4.10;3.70;;;;;;;14.70;82.84;92699.09;513460;28;849;-67
2023/11/06 00:30:43;;;;;;;4.10;3.80;;;;;;;14.69;82.75;92706.69;513654;28;844;-67
2023/11/06 00:30:58;;;;;;;4.35;3.95;;;;;;;14.69;82.64;92705.94;513821;28;845;-67
2023/11/06 00:31:16;;;;;;;5.43;4.88;;;;;;;14.68;82.60;92702.47;513645;28;885;-67
2023/11/06 00:31:39;;;;;;;5.95;5.35;;;;;;;14.69;82.62;92709.47;513462;28;892;-67
2023/11/06 00:31:54;;;;;;;4.35;3.95;;;;;;;14.70;82.55;92704.63;513648;28;833;-67
2023/11/06 00:32:10;;;;;;;4.45;4.05;;;;;;;14.68;82.49;92699.69;513729;28;892;-67
2023/11/06 00:32:25;;;;;;;4.13;3.83;;;;;;;14.67;82.52;92712.09;513834;28;1631;-67
2023/11/06 00:32:40;;;;;;;4.33;3.97;;;;;;;14.67;82.71;92703.78;513588;28;932;-67
2023/11/06 00:32:57;;;;;;;4.40;3.97;;;;;;;14.67;82.71;92701.00;513692;28;849;-67
2023/11/06 00:33:12;;;;;;;4.03;3.55;;;;;;;14.68;82.64;92702.47;513735;28;1733;-67
2023/11/06 00:33:28;;;;;;;3.85;3.47;;;;;;;14.68;82.66;92705.25;513733;28;915;-67
2023/11/06 00:33:43;;;;;;;3.87;3.30;;;;;;;14.69;82.65;92703.16;513630;28;1214;-67
2023/11/06 00:33:58;;;;;;;4.00;3.17;;;;;;;14.69;82.88;92706.69;513665;28;833;-67
2023/11/06 00:34:14;;;;;;;4.47;3.17;;;;;;;14.70;82.79;92712.97;513673;28;785;-67
2023/11/06 00:34:31;;;;;;;4.43;3.10;;;;;;;14.70;82.96;92710.94;513644;28;821;-67
2023/11/06 00:34:46;;;;;;;3.50;3.20;;;;;;;14.70;82.89;92710.94;513752;28;800;-67
2023/11/06 00:35:03;;;;;;;3.10;2.80;;;;;;;14.71;82.84;92715.16;513647;28;869;-67
2023/11/06 00:35:19;;;;;;;2.88;2.40;;;;;;;14.71;82.93;92723.47;513704;28;1622;-67
2023/11/06 00:35:34;;;;;;;4.25;2.50;;;;;;;14.71;82.92;92717.19;513825;28;916;-67
2023/11/06 00:35:50;;;;;;;6.70;2.80;;;;;;;14.61;82.76;92705.41;513499;28;872;-67
2023/11/06 00:36:06;;;;;;;5.55;2.90;;;;;;;14.72;82.81;92722.19;513694;28;817;-67
2023/11/06 00:36:25;;;;;;;2.97;2.65;;;;;;;14.73;82.69;92729.19;513695;28;953;-67
2023/11/06 00:36:40;;;;;;;3.13;2.60;;;;;;;14.73;82.62;92720.84;513568;28;1012;-67
2023/11/06 00:36:56;;;;;;;3.33;2.70;;;;;;;14.74;82.70;92718.78;513824;28;1914;-67
2023/11/06 00:37:11;;;;;;;3.40;2.72;;;;;;;14.69;82.54;92715.03;513672;28;912;-67
2023/11/06 00:37:27;;;;;;;3.53;2.63;;;;;;;14.74;82.46;92727.13;513717;28;846;-67
2023/11/06 00:37:43;;;;;;;2.85;2.35;;;;;;;14.74;82.46;92727.13;511561;29;2305;-67
2023/11/06 00:37:58;;;;;;;2.95;2.13;;;;;;;14.74;82.40;92722.31;511651;29;861;-67
2023/11/06 00:38:13;;;;;;;3.40;2.37;;;;;;;14.74;82.24;92722.31;511492;29;841;-67
2023/11/06 00:38:29;;;;;;;3.50;2.47;;;;;;;14.68;82.33;92710.06;511474;28;817;-67
2023/11/06 00:38:45;;;;;;;3.22;2.10;;;;;;;14.74;82.17;92719.53;511650;29;1144;-67
2023/11/06 00:39:00;;;;;;;3.70;2.03;;;;;;;14.75;82.08;92729.31;511460;29;849;-67
2023/11/06 00:39:16;;;;;;;4.15;2.30;;;;;;;14.76;81.97;92724.50;511588;29;853;-67
2023/11/06 00:39:31;;;;;;;5.03;2.63;;;;;;;14.75;82.00;92725.81;511655;28;813;-67
2023/11/06 00:39:46;;;;;;;5.82;3.00;;;;;;;14.75;82.05;92726.53;513830;28;1027;-67
2023/11/06 00:40:03;;;;;;;3.87;2.97;;;;;;;14.75;81.95;92731.38;513520;28;868;-67
2023/11/06 00:40:19;;;;;;;3.70;2.72;;;;;;;14.75;81.85;92734.16;513671;28;821;-67
2023/11/06 00:40:34;;;;;;;4.20;2.67;;;;;;;14.75;81.92;92726.53;513662;28;910;-67
2023/11/06 00:40:50;;;;;;;3.27;2.70;;;;;;;14.74;81.81;92722.31;513853;28;777;-67
2023/11/06 00:41:05;;;;;;;3.07;2.77;;;;;;;14.74;81.67;92721.56;513735;28;856;-67
2023/11/06 00:41:21;;;;;;;3.78;3.10;;;;;;;14.74;81.58;92719.53;513625;28;770;-67
2023/11/06 00:41:36;;;;;;;4.63;3.50;;;;;;;14.73;81.33;92720.84;513754;28;861;-67
2023/11/06 00:41:51;;;;;;;4.20;3.27;;;;;;;14.73;81.47;92720.09;513899;28;917;-67
2023/11/06 00:42:07;;;;;;;4.30;3.30;;;;;;;14.73;81.30;92725.66;513493;28;890;-67
2023/11/06 00:42:24;;;;;;;9.90;5.40;;;;;;;14.72;81.15;92724.97;513641;28;912;-67
2023/11/06 00:42:40;;;;;;;12.20;6.70;;;;;;;14.71;81.35;92723.47;513558;28;811;-67
2023/11/06 00:42:55;;;;;;;8.73;5.45;;;;;;;14.71;81.38;92726.25;513905;28;830;-67
2023/11/06 00:43:12;;;;;;;8.43;5.13;;;;;;;14.70;81.34;92722.03;513702;28;813;-67
2023/11/06 00:43:27;;;;;;;9.27;5.07;;;;;;;14.70;81.43;92722.03;513727;28;887;-67
2023/11/06 00:43:43;;;;;;;6.63;3.80;;;;;;;14.71;81.31;92719.97;513740;28;825;-67
2023/11/06 00:43:58;;;;;;;4.28;3.00;;;;;;;14.71;81.42;92720.72;513772;28;885;-67
2023/11/06 00:44:14;;;;;;;4.43;3.25;;;;;;;14.72;81.39;92721.44;513587;28;1519;-67
2023/11/06 00:44:29;;;;;;;5.27;3.83;;;;;;;14.72;81.36;92724.22;513677;28;766;-67
2023/11/06 00:44:44;;;;;;;5.13;3.50;;;;;;;14.72;81.30;92727.72;513573;28;805;-67
2023/11/06 00:45:02;;;;;;;5.00;3.45;;;;;;;14.72;81.34;92724.22;513898;28;774;-67
2023/11/06 00:45:17;;;;;;;5.10;3.60;;;;;;;14.72;81.34;92727.72;513607;28;1653;-67
2023/11/06 00:45:33;;;;;;;6.00;3.60;;;;;;;14.72;81.22;92724.97;513336;28;1094;-67
2023/11/06 00:45:48;;;;;;;7.23;4.27;;;;;;;14.72;81.20;92724.97;513605;28;921;-67
2023/11/06 00:46:03;;;;;;;6.00;4.10;;;;;;;14.73;81.24;92731.22;513790;28;778;-67
2023/11/06 00:46:19;;;;;;;5.18;3.63;;;;;;;14.71;81.28;92731.09;513646;28;869;-67
2023/11/06 00:46:34;;;;;;;5.28;3.67;;;;;;;14.70;81.11;92729.66;513655;28;841;-67
2023/11/06 00:46:50;;;;;;;6.17;3.60;;;;;;;14.69;81.16;92730.94;513593;28;766;-67
2023/11/06 00:47:05;;;;;;;8.82;3.95;;;;;;;14.68;81.27;92733.03;513888;28;829;-67
2023/11/06 00:47:22;;;;;;;7.50;3.97;;;;;;;14.68;81.10;92737.84;513702;28;766;-67
2023/11/06 00:47:37;;;;;;;3.85;3.15;;;;;;;14.68;81.21;92735.81;513710;28;1023;-67
2023/11/06 00:47:53;;;;;;;3.63;2.90;;;;;;;14.46;80.98;92698.19;513666;28;896;-67
2023/11/06 00:48:08;;;;;;;5.07;3.28;;;;;;;14.67;81.05;92737.13;513708;28;873;-67
2023/11/06 00:48:24;;;;;;;6.10;3.47;;;;;;;14.66;81.04;92743.97;513595;28;861;-67
2023/11/06 00:48:39;;;;;;;5.63;3.37;;;;;;;14.66;81.02;92738.41;513637;28;758;-67
2023/11/06 00:48:54;;;;;;;4.75;3.30;;;;;;;14.66;80.84;92743.28;513888;28;817;-67
2023/11/06 00:49:10;;;;;;;5.17;3.13;;;;;;;14.66;80.74;92748.81;511563;29;786;-67
2023/11/06 00:49:26;;;;;;;7.70;3.33;;;;;;;14.65;80.85;92742.53;511494;29;998;-67
2023/11/06 00:49:41;;;;;;;6.90;3.27;;;;;;;14.63;80.81;92747.22;511391;29;1174;-67
2023/11/06 00:49:56;;;;;;;5.22;3.22;;;;;;;14.65;80.75;92750.13;511817;29;984;-67
2023/11/06 00:50:12;;;;;;;6.53;3.40;;;;;;;14.66;80.68;92746.03;511482;29;761;-67
2023/11/06 00:50:27;;;;;;;5.43;3.23;;;;;;;14.66;80.77;92748.81;511514;29;825;-67
2023/11/06 00:50:43;;;;;;;5.10;3.33;;;;;;;14.67;80.71;92753.03;511413;29;865;-67
2023/11/06 00:50:59;;;;;;;5.33;3.50;;;;;;;14.66;80.66;92752.31;512031;28;782;-67
2023/11/06 00:51:14;;;;;;;4.78;3.70;;;;;;;14.67;80.51;92759.34;513671;28;904;-67
2023/11/06 00:51:30;;;;;;;5.00;3.57;;;;;;;14.61;80.54;92747.81;513626;28;854;-67
2023/11/06 00:51:45;;;;;;;6.33;4.03;;;;;;;14.67;80.54;92755.81;513547;28;782;-69
2023/11/06 00:52:01;;;;;;;6.93;4.35;;;;;;;14.64;80.83;92754.97;513816;28;849;-67
2023/11/06 00:52:18;;;;;;;7.30;4.30;;;;;;;14.64;80.55;92746.63;513652;28;852;-67
2023/11/06 00:52:33;;;;;;;9.47;4.40;;;;;;;14.62;80.61;92752.03;513567;28;778;-67
2023/11/06 00:52:48;;;;;;;9.33;4.50;;;;;;;14.62;80.49;92749.25;513590;28;814;-67
2023/11/06 00:53:04;;;;;;;7.95;4.63;;;;;;;14.63;80.36;92750.72;513864;28;778;-67
2023/11/06 00:53:19;;;;;;;7.67;4.27;;;;;;;14.62;80.19;92748.56;513751;28;862;-67
2023/11/06 00:53:34;;;;;;;6.27;4.20;;;;;;;14.63;80.38;92745.19;513642;28;892;-67
2023/11/06 00:53:50;;;;;;;5.03;3.63;;;;;;;14.62;80.10;92743.00;513537;28;857;-67
2023/11/06 00:54:05;;;;;;;4.77;3.47;;;;;;;14.59;80.38;92744.91;513865;28;916;-67
2023/11/06 00:54:21;;;;;;;6.40;3.53;;;;;;;14.59;80.26;92741.41;513335;28;813;-67
2023/11/06 00:54:36;;;;;;;6.83;3.47;;;;;;;14.59;80.41;92747.69;513597;28;911;-67
2023/11/06 00:54:51;;;;;;;6.13;3.57;;;;;;;14.58;80.31;92737.88;513800;28;908;-67
2023/11/06 00:55:07;;;;;;;6.68;3.67;;;;;;;14.57;80.52;92742.00;513724;28;769;-67
2023/11/06 00:55:22;;;;;;;6.30;3.40;;;;;;;14.58;80.50;92746.22;513684;28;1090;-67
2023/11/06 00:55:40;;;;;;;4.80;3.00;;;;;;;14.57;80.44;92735.72;513724;28;904;-67
2023/11/06 00:55:55;;;;;;;4.43;2.72;;;;;;;14.57;80.53;92742.00;513729;28;927;-67
2023/11/06 00:56:10;;;;;;;3.73;2.23;;;;;;;14.55;80.35;92741.88;513790;28;789;-67
2023/11/06 00:56:26;;;;;;;2.55;1.77;;;;;;;14.54;80.48;92737.63;513536;28;822;-67
2023/11/06 00:56:41;;;;;;;2.50;1.60;;;;;;;14.55;80.37;92738.34;513596;28;745;-67
2023/11/06 00:56:56;;;;;;;2.63;1.70;;;;;;;14.54;80.27;92737.63;513822;28;1965;-67
2023/11/06 00:57:12;;;;;;;2.50;1.60;;;;;;;14.54;80.31;92740.38;513631;28;841;-67
2023/11/06 00:57:27;;;;;;;2.23;1.53;;;;;;;14.52;80.30;92740.25;513672;28;1001;-68
2023/11/06 00:57:46;;;;;;;1.73;1.60;;;;;;;14.52;80.41;92745.81;511388;29;2348;-67
2023/11/06 00:58:01;;;;;;;2.15;1.67;;;;;;;14.52;80.26;92740.25;511577;29;784;-67
2023/11/06 00:58:16;;;;;;;2.70;1.60;;;;;;;14.51;80.45;92746.41;511809;29;803;-68
2023/11/06 00:58:32;;;;;;;2.13;1.70;;;;;;;14.51;80.45;92747.13;511365;29;984;-67
2023/11/06 00:58:47;;;;;;;2.50;2.05;;;;;;;14.50;80.53;92744.94;511540;29;932;-67
2023/11/06 00:59:02;;;;;;;3.00;2.07;;;;;;;14.49;80.39;92746.97;511676;29;754;-67
2023/11/06 00:59:18;;;;;;;3.13;2.00;;;;;;;14.45;80.45;92749.50;511567;29;817;-67
2023/11/06 00:59:33;;;;;;;3.33;2.13;;;;;;;14.42;80.43;92747.91;512145;28;782;-67
2023/11/06 00:59:49;;;;;;;3.30;2.30;;;;;;;14.42;80.60;92750.69;513685;28;766;-67
2023/11/06 01:00:07;;;;;;;5.22;2.30;;;;;;;14.42;80.66;92756.25;513871;28;777;-67
2023/11/06 01:00:25;;;;;;;5.20;2.35;;;;;;;14.41;80.59;92752.72;513820;28;927;-67
2023/11/06 01:00:41;;;;;;;3.30;2.13;;;;;;;14.41;80.59;92755.50;513538;28;793;-67
2023/11/06 01:00:56;;;;;;;2.90;1.90;;;;;;;14.42;80.69;92753.47;513673;28;857;-67
2023/11/06 01:01:13;;;;;;;3.23;1.97;;;;;;;14.41;80.62;92749.94;513620;28;1059;-67
2023/11/06 01:01:29;;;;;;;3.80;2.08;;;;;;;14.42;80.57;92753.47;513828;28;1148;-67
2023/11/06 01:01:44;;;;;;;3.60;2.30;;;;;;;14.43;80.47;92758.41;513733;28;849;-67
2023/11/06 01:02:00;;;;;;;3.13;2.30;;;;;;;14.43;80.48;92752.13;513640;28;791;-67
2023/11/06 01:02:15;;;;;;;2.47;2.00;;;;;;;14.42;80.47;92756.94;513665;28;920;-67
2023/11/06 01:02:30;;;;;;;3.80;2.22;;;;;;;14.41;80.48;92755.50;513905;28;833;-67
2023/11/06 01:02:46;;;;;;;4.43;2.27;;;;;;;14.43;80.30;92754.91;513541;28;827;-67
2023/11/06 01:03:01;;;;;;;4.30;2.07;;;;;;;14.42;80.38;92753.47;513648;28;824;-67
2023/11/06 01:03:16;;;;;;;3.85;1.90;;;;;;;14.42;80.32;92762.50;513636;28;919;-67
2023/11/06 01:03:32;;;;;;;2.73;1.70;;;;;;;14.43;80.20;92760.47;513763;28;861;-67
2023/11/06 01:03:48;;;;;;;2.92;1.95;;;;;;;14.42;80.15;92759.72;513649;28;778;-67
2023/11/06 01:04:04;;;;;;;2.97;1.98;;;;;;;14.42;80.21;92759.03;513532;28;848;-67
2023/11/06 01:04:20;;;;;;;2.72;1.63;;;;;;;14.42;80.14;92762.50;513612;28;837;-67
2023/11/06 01:04:36;;;;;;;2.88;1.88;;;;;;;14.43;80.07;92760.47;513809;28;853;-67
2023/11/06 01:04:51;;;;;;;3.47;2.20;;;;;;;14.42;79.87;92765.28;513378;28;788;-67
2023/11/06 01:05:07;;;;;;;3.88;2.20;;;;;;;14.43;79.88;92763.25;513650;28;861;-67
2023/11/06 01:05:22;;;;;;;4.10;2.10;;;;;;;14.42;79.91;92759.72;513853;28;829;-67
2023/11/06 01:05:38;;;;;;;3.75;2.03;;;;;;;14.44;79.69;92764.72;513704;28;1530;-67
2023/11/06 01:05:53;;;;;;;3.03;1.90;;;;;;;14.42;79.54;92764.56;513566;28;860;-67
2023/11/06 01:06:10;;;;;;;3.65;1.80;;;;;;;14.42;79.40;92764.56;513551;28;837;-67
2023/11/06 01:06:25;;;;;;;4.43;1.83;;;;;;;14.41;79.24;92763.84;513661;28;880;-67
2023/11/06 01:06:40;;;;;;;3.03;1.67;;;;;;;14.41;79.17;92761.06;513788;28;889;-67
2023/11/06 01:06:56;;;;;;;1.60;1.50;;;;;;;14.40;79.12;92759.59;513629;28;778;-67
2023/11/06 01:07:12;;;;;;;2.23;1.90;;;;;;;14.40;79.08;92767.91;513595;28;829;-67
2023/11/06 01:07:27;;;;;;;3.33;2.05;;;;;;;14.39;78.98;92766.47;513950;28;919;-67
2023/11/06 01:07:42;;;;;;;3.70;1.73;;;;;;;14.38;79.01;92767.78;513338;28;1128;-67
2023/11/06 01:07:58;;;;;;;2.70;1.48;;;;;;;14.39;78.98;92771.28;513625;28;837;-67
2023/11/06 01:08:13;;;;;;;1.80;1.50;;;;;;;14.38;78.96;92778.16;513584;28;1166;-67
2023/11/06 01:08:29;;;;;;;1.47;1.37;;;;;;;14.35;79.01;92763.44;513914;28;834;-67
2023/11/06 01:08:44;;;;;;;2.60;1.50;;;;;;;14.35;79.27;92763.44;513701;28;837;-67
2023/11/06 01:09:00;;;;;;;3.03;1.67;;;;;;;14.35;79.23;92773.78;513702;28;817;-67
2023/11/06 01:09:18;;;;;;;2.20;1.55;;;;;;;14.34;79.26;92764.72;513548;28;871;-67
2023/11/06 01:09:33;;;;;;;2.28;1.55;;;;;;;14.34;79.29;92758.44;513869;28;916;-67
2023/11/06 01:09:49;;;;;;;2.70;1.50;;;;;;;14.33;79.24;92757.00;513673;28;794;-67
2023/11/06 01:10:05;;;;;;;2.00;1.42;;;;;;;14.34;79.06;92758.44;513655;28;943;-67
2023/11/06 01:10:20;;;;;;;2.00;1.58;;;;;;;14.33;79.18;92760.50;513645;28;797;-67
2023/11/06 01:10:35;;;;;;;1.97;1.50;;;;;;;14.32;79.18;92767.38;513792;28;829;-67
2023/11/06 01:10:51;;;;;;;1.63;1.37;;;;;;;14.30;79.24;92758.91;513721;28;849;-67
2023/11/06 01:11:06;;;;;;;1.73;1.40;;;;;;;14.29;79.20;92759.50;513692;28;864;-67
2023/11/06 01:11:22;;;;;;;1.90;1.70;;;;;;;14.27;79.17;92754.50;513597;28;1054;-67
2023/11/06 01:11:37;;;;;;;2.00;1.60;;;;;;;14.28;79.29;92764.28;513800;28;908;-67
2023/11/06 01:11:53;;;;;;;2.13;1.50;;;;;;;14.15;79.30;92745.34;513541;28;856;-67
2023/11/06 01:12:09;;;;;;;3.20;2.10;;;;;;;14.28;79.53;92752.44;513655;28;863;-67
2023/11/06 01:12:24;;;;;;;2.57;1.97;;;;;;;14.26;79.41;92763.41;513661;28;977;-67
2023/11/06 01:12:40;;;;;;;1.45;1.35;;;;;;;14.26;79.37;92763.41;513781;28;857;-67
2023/11/06 01:12:56;;;;;;;1.30;1.20;;;;;;;14.26;79.34;92768.97;513709;28;777;-67
2023/11/06 01:13:13;;;;;;;1.20;1.10;;;;;;;14.26;79.21;92763.41;513679;28;807;-67
2023/11/06 01:13:29;;;;;;;1.63;1.13;;;;;;;14.26;78.91;92768.97;513581;28;935;-67
2023/11/06 01:13:44;;;;;;;1.45;1.08;;;;;;;14.25;78.91;92768.22;513875;28;797;-67
2023/11/06 01:13:59;;;;;;;1.50;1.10;;;;;;;14.24;78.94;92764.00;513569;28;1220;-67
2023/11/06 01:14:15;;;;;;;1.60;1.27;;;;;;;14.24;78.91;92766.78;513679;28;861;-67
2023/11/06 01:14:31;;;;;;;1.30;1.20;;;;;;;14.23;78.81;92776.44;513550;28;1087;-67
2023/11/06 01:14:46;;;;;;;1.30;1.20;;;;;;;14.24;78.84;92771.59;513851;28;880;-67
2023/11/06 01:15:01;;;;;;;1.40;1.30;;;;;;;14.23;79.00;92776.44;513510;28;1518;-67
2023/11/06 01:15:17;;;;;;;1.80;1.37;;;;;;;14.24;78.93;92777.16;513563;28;943;-67
2023/11/06 01:15:33;;;;;;;1.73;1.27;;;;;;;14.23;79.01;92778.47;513599;28;960;-67
2023/11/06 01:15:48;;;;;;;1.50;1.13;;;;;;;14.22;79.01;92768.69;513893;28;868;-67
2023/11/06 01:16:04;;;;;;;1.95;1.40;;;;;;;14.23;78.92;92775.69;513662;28;995;-67
2023/11/06 01:16:19;;;;;;;1.87;1.50;;;;;;;14.24;78.92;92768.84;513576;28;1313;-67
2023/11/06 01:16:34;;;;;;;1.60;1.40;;;;;;;14.24;78.73;92774.38;513705;28;829;-67
2023/11/06 01:16:50;;;;;;;1.73;1.50;;;;;;;14.21;78.79;92770.75;513752;28;923;-67